Time;durP1;ratioP1;P1;durP2;ratioP2;P2;SDS_P1;SDS_P2;PMS_P1;PMS_P2;Temp;Humidity;BMP_temperature;BMP_pressure;BME280_temperature;BME280_humidity;BME280_pressure;Samples;Min_cycle;Max_cycle;Signal;HPM_P1;HPM_P2
2021/10/30 00:00:09;;;;;;;18.77;3.60;;;;;;;17.81;48.50;98730.81;4424167;32;20085;-71
2021/10/30 00:02:36;;;;;;;20.95;2.87;;;;;;;17.98;48.10;98724.91;4420487;32;20046;-71
2021/10/30 00:05:03;;;;;;;18.70;3.35;;;;;;;18.06;47.67;98722.97;4420890;32;20033;-71
2021/10/30 00:07:43;;;;;;;18.15;3.50;;;;;;;18.22;47.40;98728.44;4422735;32;20076;-71
2021/10/30 00:10:22;;;;;;;13.15;2.95;;;;;;;18.06;47.44;98711.59;4422544;32;20060;-71
2021/10/30 00:13:01;;;;;;;12.25;2.92;;;;;;;18.22;47.28;98719.91;4416018;32;20160;-71
2021/10/30 00:15:28;;;;;;;17.25;3.35;;;;;;;17.98;47.33;98713.53;4422269;32;20077;-71
2021/10/30 00:17:54;;;;;;;12.02;3.65;;;;;;;18.29;46.83;98704.28;4422438;32;20399;-71
2021/10/30 00:20:20;;;;;;;19.85;2.87;;;;;;;18.16;47.01;98704.22;4420216;32;20117;-71
2021/10/30 00:22:45;;;;;;;23.62;4.12;;;;;;;18.25;46.96;98696.03;4422049;32;20115;-70
2021/10/30 00:25:12;;;;;;;21.75;3.85;;;;;;;18.15;47.06;98689.22;4421836;32;20098;-70
2021/10/30 00:27:38;;;;;;;21.60;3.12;;;;;;;18.24;46.90;98691.66;4424972;32;20056;-70
2021/10/30 00:30:04;;;;;;;25.23;4.25;;;;;;;18.14;47.17;98689.75;4425311;32;20038;-70
2021/10/30 00:32:30;;;;;;;13.73;3.40;;;;;;;18.53;46.52;98690.72;4423361;32;20061;-70
2021/10/30 00:34:55;;;;;;;14.18;2.50;;;;;;;18.44;46.27;98688.28;4420329;32;20159;-70
2021/10/30 00:37:21;;;;;;;17.25;2.55;;;;;;;18.04;47.11;98685.75;4425677;32;20050;-70
2021/10/30 00:39:47;;;;;;;18.62;3.55;;;;;;;18.09;47.28;98685.66;4422971;32;20076;-70
2021/10/30 00:42:12;;;;;;;17.95;3.17;;;;;;;18.18;46.94;98684.50;4426353;32;20038;-71
2021/10/30 00:44:38;;;;;;;15.65;2.80;;;;;;;17.98;47.36;98685.06;4423108;32;20064;-70
2021/10/30 00:47:05;;;;;;;20.55;3.62;;;;;;;18.13;47.27;98688.97;4423876;32;20101;-70
2021/10/30 00:49:32;;;;;;;10.75;2.45;;;;;;;18.21;46.96;98692.75;4425405;32;20073;-70
2021/10/30 00:51:58;;;;;;;11.35;2.90;;;;;;;18.05;47.32;98675.91;4421085;32;20348;-70
2021/10/30 00:54:25;;;;;;;20.37;3.60;;;;;;;18.38;46.85;98670.50;4422680;32;20087;-70
2021/10/30 00:56:55;;;;;;;13.52;2.53;;;;;;;18.71;46.35;98681.34;4426143;32;20033;-70
2021/10/30 00:59:21;;;;;;;15.68;3.17;;;;;;;18.33;47.06;98659.94;4420957;32;20086;-70
2021/10/30 01:01:49;;;;;;;22.87;2.87;;;;;;;18.47;46.56;98660.81;4422183;32;20097;-70
2021/10/30 01:04:16;;;;;;;14.32;2.80;;;;;;;18.67;46.35;98651.66;4422538;32;20041;-70
2021/10/30 01:06:46;;;;;;;15.90;2.25;;;;;;;18.60;46.47;98649.44;4427535;32;20041;-70
2021/10/30 01:09:12;;;;;;;20.70;2.58;;;;;;;18.80;45.86;98646.75;4425540;32;20080;-70
2021/10/30 01:11:40;;;;;;;15.82;2.50;;;;;;;18.52;46.52;98645.69;4425143;32;20030;-70
2021/10/30 01:14:08;;;;;;;22.25;3.58;;;;;;;18.88;45.96;98647.66;4421525;32;20048;-70
2021/10/30 01:16:33;;;;;;;14.82;2.12;;;;;;;18.81;45.83;98628.31;4422426;32;20093;-70
2021/10/30 01:19:00;;;;;;;23.23;3.30;;;;;;;18.29;46.93;98630.25;4424219;32;20092;-70
2021/10/30 01:21:30;;;;;;;15.98;3.33;;;;;;;18.29;47.07;98616.03;4422355;32;20164;-70
2021/10/30 01:23:57;;;;;;;11.18;2.08;;;;;;;18.46;46.78;98613.69;4424137;32;20041;-70
2021/10/30 01:26:24;;;;;;;13.50;2.10;;;;;;;18.27;47.33;98618.62;4425792;32;20052;-70
2021/10/30 01:28:51;;;;;;;17.55;2.78;;;;;;;18.33;47.23;98616.47;4422250;32;20306;-70
2021/10/30 01:31:20;;;;;;;13.55;2.75;;;;;;;18.17;47.56;98617.50;4423102;32;20074;-70
2021/10/30 01:33:48;;;;;;;19.35;2.35;;;;;;;18.23;47.58;98613.28;4422905;32;20500;-70
2021/10/30 01:36:17;;;;;;;16.58;2.53;;;;;;;18.10;47.73;98610.34;4424549;32;20062;-70
2021/10/30 01:38:44;;;;;;;19.62;2.42;;;;;;;18.01;48.20;98599.37;4423635;32;20081;-70
2021/10/30 01:41:09;;;;;;;19.02;2.70;;;;;;;17.91;48.37;98591.78;4425001;32;20026;-70
2021/10/30 01:43:35;;;;;;;12.93;2.55;;;;;;;17.93;47.94;98587.09;4422009;32;20064;-70
2021/10/30 01:46:02;;;;;;;15.75;2.75;;;;;;;17.91;48.28;98578.31;4420947;32;20040;-70
2021/10/30 01:48:32;;;;;;;14.82;2.00;;;;;;;18.27;47.35;98588.09;4423218;32;20093;-70
2021/10/30 01:50:58;;;;;;;16.80;3.15;;;;;;;18.51;47.13;98576.56;4421495;32;20046;-70
2021/10/30 01:53:24;;;;;;;11.55;2.50;;;;;;;18.34;47.14;98583.81;4421358;32;20085;-70
2021/10/30 01:55:50;;;;;;;16.30;2.45;;;;;;;18.36;46.70;98586.91;4421412;32;20070;-70
2021/10/30 01:58:16;;;;;;;12.50;3.33;;;;;;;18.48;46.79;98591.13;4422720;32;20073;-70
2021/10/30 02:00:43;;;;;;;15.20;3.47;;;;;;;18.56;46.66;98584.25;4421601;32;20098;-70
2021/10/30 02:03:10;;;;;;;11.93;2.25;;;;;;;18.79;46.29;98579.69;4421899;32;20025;-69
2021/10/30 02:05:35;;;;;;;13.43;2.20;;;;;;;18.41;46.74;98564.06;4424123;32;20072;-69
2021/10/30 02:08:01;;;;;;;20.73;3.55;;;;;;;18.45;46.79;98552.34;4420379;32;20042;-69
2021/10/30 02:10:27;;;;;;;13.13;2.65;;;;;;;18.22;47.20;98559.72;4423923;32;20092;-69
2021/10/30 02:12:53;;;;;;;16.08;2.92;;;;;;;18.19;47.50;98555.88;4426025;32;20361;-70
2021/10/30 02:15:19;;;;;;;13.35;2.75;;;;;;;18.27;47.29;98562.47;4421191;32;20089;-69
2021/10/30 02:17:44;;;;;;;17.33;2.70;;;;;;;18.20;47.46;98551.72;4420722;32;20376;-69
2021/10/30 02:20:11;;;;;;;15.95;2.85;;;;;;;18.32;47.12;98546.59;4423901;32;20123;-69
2021/10/30 02:22:38;;;;;;;21.77;3.08;;;;;;;18.11;47.84;98540.75;4418928;32;20107;-69
2021/10/30 02:25:06;;;;;;;21.33;2.53;;;;;;;17.89;48.47;98526.88;4419020;32;20526;-69
2021/10/30 02:27:31;;;;;;;16.95;3.08;;;;;;;17.86;48.38;98525.13;4422346;32;20076;-69
2021/10/30 02:29:57;;;;;;;12.45;2.50;;;;;;;17.84;48.47;98530.56;4422020;32;20470;-69
2021/10/30 02:32:23;;;;;;;15.85;2.70;;;;;;;17.95;48.07;98523.94;4422078;32;20439;-69
2021/10/30 02:34:48;;;;;;;14.63;2.58;;;;;;;17.86;48.55;98522.28;4421425;32;20435;-69
2021/10/30 02:37:14;;;;;;;16.30;2.87;;;;;;;17.61;49.12;98515.16;4421787;32;20042;-69
2021/10/30 02:39:40;;;;;;;10.63;2.33;;;;;;;17.32;49.77;98528.22;4424512;32;20472;-69
2021/10/30 02:42:06;;;;;;;12.45;3.15;;;;;;;17.41;49.56;98510.00;4419945;32;20077;-69
2021/10/30 02:44:33;;;;;;;21.17;3.00;;;;;;;17.65;49.19;98512.78;4420568;32;20073;-69
2021/10/30 02:46:59;;;;;;;19.35;2.67;;;;;;;17.73;49.02;98507.97;4421375;32;20439;-69
2021/10/30 02:49:24;;;;;;;12.52;2.70;;;;;;;17.79;48.98;98506.59;4420877;32;20161;-69
2021/10/30 02:51:50;;;;;;;10.63;2.58;;;;;;;17.36;50.17;98499.47;4420535;32;20089;-70
2021/10/30 02:54:15;;;;;;;14.68;2.62;;;;;;;17.36;49.95;98486.03;4423201;32;20486;-69
2021/10/30 02:56:42;;;;;;;17.00;3.75;;;;;;;17.37;50.34;98478.28;4419219;32;20458;-70
2021/10/30 02:59:08;;;;;;;12.37;3.00;;;;;;;17.72;49.42;98473.09;4417898;32;20112;-69
2021/10/30 03:01:34;;;;;;;19.62;2.92;;;;;;;17.54;50.04;98456.84;4421010;32;20093;-69
2021/10/30 03:04:00;;;;;;;11.82;2.60;;;;;;;17.58;49.85;98462.97;4418504;32;20104;-69
2021/10/30 03:06:26;;;;;;;23.62;3.87;;;;;;;17.95;49.31;98450.72;4420604;32;20077;-69
2021/10/30 03:08:52;;;;;;;13.62;2.25;;;;;;;17.75;49.29;98446.41;4421891;32;20077;-69
2021/10/30 03:11:18;;;;;;;23.38;2.70;;;;;;;17.67;49.70;98453.25;4423839;32;20083;-69
2021/10/30 03:13:45;;;;;;;16.85;3.40;;;;;;;17.76;49.71;98445.09;4423709;32;20366;-69
2021/10/30 03:16:11;;;;;;;17.27;2.95;;;;;;;17.87;49.30;98441.28;4423216;32;20095;-69
2021/10/30 03:18:38;;;;;;;19.73;2.67;;;;;;;17.67;49.83;98454.03;4422261;32;20112;-70
2021/10/30 03:21:04;;;;;;;19.77;2.78;;;;;;;17.77;49.67;98426.72;4420011;32;20046;-69
2021/10/30 03:23:30;;;;;;;14.85;2.85;;;;;;;17.83;49.72;98427.38;4422221;32;20076;-69
2021/10/30 03:25:55;;;;;;;15.45;2.40;;;;;;;17.88;49.49;98425.75;4421134;32;20069;-69
2021/10/30 03:28:21;;;;;;;16.35;2.80;;;;;;;17.96;49.28;98412.44;4419012;32;20042;-69
2021/10/30 03:30:47;;;;;;;18.48;3.00;;;;;;;17.73;49.75;98417.72;4420675;32;20101;-69
2021/10/30 03:33:13;;;;;;;17.20;2.95;;;;;;;18.17;48.86;98415.41;4420213;32;20443;-70
2021/10/30 03:35:39;;;;;;;13.95;2.62;;;;;;;18.25;48.96;98414.19;4422444;32;20045;-69
2021/10/30 03:38:06;;;;;;;16.23;2.92;;;;;;;18.27;49.00;98414.44;4425328;32;20085;-69
2021/10/30 03:40:31;;;;;;;18.50;2.83;;;;;;;18.41;48.45;98406.69;4425287;32;20084;-69
2021/10/30 03:42:58;;;;;;;11.35;2.40;;;;;;;18.28;48.43;98409.50;4418014;32;20102;-69
2021/10/30 03:45:24;;;;;;;14.13;2.90;;;;;;;18.35;48.69;98406.00;4417578;32;20296;-70
2021/10/30 03:47:50;;;;;;;13.82;2.80;;;;;;;18.34;48.70;98401.59;4422183;32;20116;-69
2021/10/30 03:50:16;;;;;;;15.25;2.20;;;;;;;18.52;48.40;98401.53;4423712;32;20029;-69
2021/10/30 03:52:42;;;;;;;12.70;2.70;;;;;;;18.47;48.59;98376.75;4421665;32;20097;-69
2021/10/30 03:55:09;;;;;;;13.77;2.70;;;;;;;18.41;48.68;98386.75;4419690;32;20053;-69
2021/10/30 03:57:35;;;;;;;16.92;2.62;;;;;;;18.54;48.57;98376.13;4422855;32;20077;-69
2021/10/30 04:00:01;;;;;;;16.58;2.40;;;;;;;18.25;49.26;98377.19;4420501;32;20087;-69
2021/10/30 04:02:27;;;;;;;21.40;3.22;;;;;;;18.35;48.99;98366.88;4420243;32;20038;-69
2021/10/30 04:04:52;;;;;;;14.63;2.37;;;;;;;18.64;48.06;98367.88;4423884;32;20384;-70
2021/10/30 04:07:21;;;;;;;13.35;2.65;;;;;;;18.62;48.16;98370.53;4420088;32;20524;-69
2021/10/30 04:09:47;;;;;;;14.93;2.58;;;;;;;18.58;48.24;98376.53;4419522;32;20121;-69
2021/10/30 04:12:13;;;;;;;21.00;2.92;;;;;;;18.43;48.39;98364.16;4422506;32;20077;-69
2021/10/30 04:14:39;;;;;;;12.65;3.05;;;;;;;18.41;48.88;98372.50;4422459;32;20069;-69
2021/10/30 04:17:05;;;;;;;14.45;2.87;;;;;;;18.59;48.39;98371.63;4419894;32;20037;-69
2021/10/30 04:19:31;;;;;;;13.48;2.10;;;;;;;18.75;47.96;98373.34;4418961;32;20092;-69
2021/10/30 04:21:56;;;;;;;19.00;3.75;;;;;;;18.44;48.75;98360.78;4424316;32;20045;-69
2021/10/30 04:24:23;;;;;;;11.95;2.12;;;;;;;18.80;47.89;98358.97;4420109;32;20395;-69
2021/10/30 04:26:48;;;;;;;15.52;2.90;;;;;;;18.55;48.37;98360.56;4421442;32;20109;-70
2021/10/30 04:29:14;;;;;;;13.62;3.90;;;;;;;18.59;48.26;98338.19;4422903;32;20220;-69
2021/10/30 04:31:42;;;;;;;13.95;2.17;;;;;;;18.47;48.60;98336.88;4420404;32;20115;-69
2021/10/30 04:34:17;;;;;;;19.35;2.35;;;;;;;18.18;49.25;98328.69;4419007;32;20460;-69
2021/10/30 04:36:47;;;;;;;15.15;2.75;;;;;;;18.19;49.14;98330.22;4418393;32;20093;-69
2021/10/30 04:39:13;;;;;;;12.95;2.00;;;;;;;18.46;48.86;98329.66;4419896;32;20098;-69
2021/10/30 04:41:42;;;;;;;15.50;2.67;;;;;;;18.84;48.07;98336.56;4424891;32;20085;-70
2021/10/30 04:44:08;;;;;;;16.50;2.42;;;;;;;18.77;48.25;98330.78;4423530;32;20100;-69
2021/10/30 04:46:34;;;;;;;19.40;2.95;;;;;;;18.94;47.75;98351.12;4421786;32;20048;-69
2021/10/30 04:49:01;;;;;;;19.42;3.25;;;;;;;18.68;48.10;98337.72;4425529;32;20079;-69
2021/10/30 04:51:26;;;;;;;14.73;3.03;;;;;;;18.95;47.50;98333.50;4426736;32;20117;-69
2021/10/30 04:53:52;;;;;;;18.17;2.45;;;;;;;19.02;47.34;98338.50;4422708;32;20153;-69
2021/10/30 04:56:18;;;;;;;15.48;2.55;;;;;;;19.00;47.55;98331.81;4422268;32;20084;-70
2021/10/30 04:58:44;;;;;;;20.05;3.70;;;;;;;18.77;47.69;98325.09;4423115;32;20045;-69
2021/10/30 05:01:12;;;;;;;10.48;1.85;;;;;;;18.89;47.75;98326.38;4424821;32;20065;-69
2021/10/30 05:03:38;;;;;;;13.82;2.45;;;;;;;18.76;48.30;98329.28;4421760;32;20030;-69
2021/10/30 05:06:04;;;;;;;15.43;2.12;;;;;;;18.94;47.85;98322.63;4423981;32;20030;-69
2021/10/30 05:08:30;;;;;;;12.32;2.62;;;;;;;18.85;47.98;98311.72;4424434;32;20059;-69
2021/10/30 05:10:56;;;;;;;27.30;2.90;;;;;;;18.92;47.70;98311.03;4422102;32;20053;-69
2021/10/30 05:13:21;;;;;;;17.30;3.45;;;;;;;18.90;47.81;98310.81;4424142;32;20077;-69
2021/10/30 05:15:47;;;;;;;15.85;2.33;;;;;;;19.23;47.23;98310.00;4425722;32;20124;-69
2021/10/30 05:18:13;;;;;;;18.85;2.62;;;;;;;19.17;47.34;98315.06;4423609;32;20021;-70
2021/10/30 05:20:38;;;;;;;16.58;2.65;;;;;;;18.93;47.60;98307.63;4423443;32;20062;-70
2021/10/30 05:23:04;;;;;;;12.70;2.40;;;;;;;18.98;47.79;98305.97;4422643;32;20081;-69
2021/10/30 05:25:29;;;;;;;28.70;2.78;;;;;;;19.16;47.66;98308.63;4417775;32;20046;-69
2021/10/30 05:27:55;;;;;;;9.82;2.37;;;;;;;19.08;48.01;98301.31;4421262;32;20077;-68
2021/10/30 05:30:21;;;;;;;10.73;2.10;;;;;;;18.73;48.82;98290.50;4423316;32;20065;-68
2021/10/30 05:32:46;;;;;;;20.02;2.67;;;;;;;18.56;49.38;98292.97;4422122;32;20550;-68
2021/10/30 05:35:12;;;;;;;12.02;2.40;;;;;;;18.41;49.90;98282.12;4421486;32;20160;-68
2021/10/30 05:37:37;;;;;;;10.23;2.28;;;;;;;18.07;50.71;98275.59;4427022;32;20033;-68
2021/10/30 05:40:07;;;;;;;18.42;2.28;;;;;;;18.55;49.78;98280.03;4425343;32;20141;-68
2021/10/30 05:42:35;;;;;;;15.18;2.70;;;;;;;18.63;49.80;98280.88;4422671;32;20022;-68
2021/10/30 05:45:04;;;;;;;13.85;2.60;;;;;;;18.69;49.59;98282.31;4421358;32;20070;-67
2021/10/30 05:47:32;;;;;;;15.48;2.30;;;;;;;18.84;49.76;98279.59;4421979;32;20055;-67
2021/10/30 05:49:58;;;;;;;11.07;2.72;;;;;;;18.89;49.30;98269.38;4421795;32;20483;-67
2021/10/30 05:52:24;;;;;;;18.37;2.55;;;;;;;18.88;49.46;98267.88;4421951;32;20107;-67
2021/10/30 05:54:49;;;;;;;14.43;3.65;;;;;;;18.62;49.91;98260.19;4423197;32;20049;-67
2021/10/30 05:57:16;;;;;;;10.77;1.98;;;;;;;18.93;49.37;98252.72;4423832;32;20045;-68
2021/10/30 05:59:42;;;;;;;24.95;3.00;;;;;;;18.68;49.57;98254.38;4423039;32;20057;-67
2021/10/30 06:02:12;;;;;;;23.23;3.15;;;;;;;17.84;51.96;98251.78;4424812;32;20525;-68
2021/10/30 06:04:39;;;;;;;17.45;2.92;;;;;;;18.00;51.64;98236.44;4418015;32;20057;-68
2021/10/30 06:07:05;;;;;;;15.82;2.58;;;;;;;18.09;51.52;98230.28;4421801;32;20021;-67
2021/10/30 06:09:31;;;;;;;20.33;3.10;;;;;;;17.95;51.85;98216.63;4421448;32;20089;-68
2021/10/30 06:11:57;;;;;;;13.02;2.47;;;;;;;17.86;52.14;98220.72;4423348;32;20061;-68
2021/10/30 06:14:22;;;;;;;12.57;3.00;;;;;;;17.86;52.33;98226.41;4423337;32;20402;-67
2021/10/30 06:16:48;;;;;;;16.00;3.20;;;;;;;17.98;52.05;98221.97;4423234;32;20093;-67
2021/10/30 06:19:14;;;;;;;20.42;3.60;;;;;;;18.14;51.45;98226.56;4421549;32;20105;-68
2021/10/30 06:21:39;;;;;;;14.57;2.75;;;;;;;18.14;51.83;98220.09;4420358;32;20459;-68
2021/10/30 06:24:05;;;;;;;15.38;3.37;;;;;;;18.36;51.29;98226.06;4420432;32;20023;-67
2021/10/30 06:26:30;;;;;;;17.05;2.58;;;;;;;18.44;51.06;98226.94;4421596;32;20368;-68
2021/10/30 06:28:56;;;;;;;11.85;2.53;;;;;;;18.74;50.41;98212.25;4421852;32;20356;-68
2021/10/30 06:31:22;;;;;;;17.73;2.60;;;;;;;19.04;49.83;98218.22;4422146;32;20053;-67
2021/10/30 06:33:50;;;;;;;27.15;3.30;;;;;;;19.32;49.43;98210.53;4423482;32;20060;-68
2021/10/30 06:36:16;;;;;;;13.60;2.03;;;;;;;19.31;49.50;98211.06;4420785;32;20113;-68
2021/10/30 06:38:42;;;;;;;15.85;3.25;;;;;;;19.10;49.63;98205.38;4422667;32;20037;-68
2021/10/30 06:41:11;;;;;;;12.77;2.12;;;;;;;19.01;49.80;98202.25;4424446;32;20034;-68
2021/10/30 06:43:38;;;;;;;13.65;2.20;;;;;;;19.03;49.95;98194.69;4411276;32;20041;-67
2021/10/30 06:46:03;;;;;;;13.60;2.40;;;;;;;19.05;49.89;98200.56;4424998;32;20071;-67
2021/10/30 06:48:29;;;;;;;14.77;3.08;;;;;;;19.26;49.54;98189.94;4418706;32;20070;-67
2021/10/30 06:50:56;;;;;;;14.27;2.55;;;;;;;19.40;49.30;98194.22;4422418;32;20068;-67
2021/10/30 06:53:22;;;;;;;12.63;2.58;;;;;;;19.38;49.34;98204.66;4420523;32;20077;-67
2021/10/30 06:55:49;;;;;;;14.95;2.22;;;;;;;19.08;49.96;98195.84;4421853;32;20034;-67
2021/10/30 06:58:16;;;;;;;14.00;4.85;;;;;;;19.48;49.47;98185.69;4423064;32;20078;-67
2021/10/30 07:00:43;;;;;;;17.95;3.60;;;;;;;18.92;50.45;98180.72;4420623;32;20038;-66
2021/10/30 07:03:09;;;;;;;18.27;2.95;;;;;;;18.85;50.76;98195.66;4418149;32;20046;-66
2021/10/30 07:05:36;;;;;;;15.55;2.95;;;;;;;19.09;50.31;98189.56;4421016;32;20025;-66
2021/10/30 07:08:02;;;;;;;18.12;2.67;;;;;;;19.24;50.05;98184.00;4421723;32;20078;-66
2021/10/30 07:10:28;;;;;;;15.13;2.78;;;;;;;19.02;50.51;98189.53;4421135;32;20037;-67
2021/10/30 07:12:53;;;;;;;13.90;2.53;;;;;;;19.03;50.38;98182.50;4424441;32;20029;-67
2021/10/30 07:15:19;;;;;;;16.42;2.80;;;;;;;19.06;50.53;98176.47;4425136;32;20374;-67
2021/10/30 07:17:46;;;;;;;15.45;2.28;;;;;;;19.08;50.51;98195.84;4423439;32;20045;-67
2021/10/30 07:20:12;;;;;;;14.98;2.55;;;;;;;18.83;51.24;98178.34;4419213;32;20101;-68
2021/10/30 07:25:21;;;;;;;14.25;3.17;;;;;;;19.17;51.26;98164.75;3988464;31;15128670;-69
2021/10/30 07:27:47;;;;;;;16.70;2.60;;;;;;;19.17;51.26;98164.75;4455468;32;20067;-69
2021/10/30 07:30:32;;;;;;;;;;;;;;;18.77;51.78;98172.03;4456612;32;20102;-69
2021/10/30 07:32:57;;;;;;;23.12;3.22;;;;;;;18.99;51.28;98165.75;4454360;32;20289;-69
2021/10/30 07:35:24;;;;;;;13.27;2.67;;;;;;;18.79;51.89;98169.38;4458466;32;20107;-69
2021/10/30 07:37:52;;;;;;;16.25;2.90;;;;;;;18.70;51.85;98155.63;4459888;32;20079;-69
2021/10/30 07:40:18;;;;;;;15.02;3.37;;;;;;;18.96;51.54;98157.56;4462540;32;20114;-69
2021/10/30 07:42:44;;;;;;;11.63;3.00;;;;;;;18.83;51.52;98154.78;4455813;32;20049;-70
2021/10/30 07:45:10;;;;;;;8.98;2.45;;;;;;;18.95;51.48;98153.16;4448606;32;20117;-69
2021/10/30 07:47:37;;;;;;;13.70;3.10;;;;;;;18.64;52.20;98149.31;4451972;32;20129;-69
2021/10/30 07:50:04;;;;;;;13.60;3.47;;;;;;;18.96;51.60;98151.88;4459151;32;20052;-70
2021/10/30 07:52:30;;;;;;;20.08;3.33;;;;;;;18.88;51.84;98145.34;4450768;32;20133;-70
2021/10/30 07:54:56;;;;;;;15.85;3.03;;;;;;;18.82;51.80;98139.00;4455661;32;20029;-69
2021/10/30 07:57:22;;;;;;;17.80;2.87;;;;;;;19.16;51.33;98133.94;4458510;32;20050;-70
2021/10/30 07:59:50;;;;;;;18.40;3.12;;;;;;;18.95;51.42;98130.38;4457740;32;20097;-70
2021/10/30 08:02:18;;;;;;;16.62;2.55;;;;;;;19.07;51.19;98129.53;4456406;32;20713;-70
2021/10/30 08:04:45;;;;;;;12.45;3.40;;;;;;;19.16;51.45;98123.31;4457215;32;20102;-68
2021/10/30 08:07:11;;;;;;;18.45;2.70;;;;;;;18.90;52.18;98131.31;4457804;32;20113;-68
2021/10/30 08:09:37;;;;;;;17.42;3.20;;;;;;;18.50;53.17;98147.84;4455239;32;20044;-68
2021/10/30 08:12:04;;;;;;;10.50;2.62;;;;;;;18.61;53.22;98152.50;4456257;32;20146;-69
2021/10/30 08:14:29;;;;;;;8.50;1.77;;;;;;;18.13;53.59;98161.66;4457489;32;20037;-69
2021/10/30 08:16:55;;;;;;;8.13;2.17;;;;;;;18.05;52.56;98155.87;4454503;32;20037;-69
2021/10/30 08:19:21;;;;;;;5.25;1.00;;;;;;;18.30;52.00;98150.63;4456988;32;20080;-69
2021/10/30 08:21:47;;;;;;;4.03;1.12;;;;;;;17.82;51.47;98164.13;4455033;32;20319;-70
2021/10/30 08:24:13;;;;;;;7.25;1.00;;;;;;;17.99;51.13;98149.53;4458995;32;20481;-69
2021/10/30 08:26:40;;;;;;;2.53;0.70;;;;;;;18.10;51.31;98137.91;4452752;32;20077;-69
2021/10/30 08:29:05;;;;;;;4.12;1.00;;;;;;;18.29;50.94;98144.19;4459057;32;20140;-69
2021/10/30 08:31:31;;;;;;;2.50;0.90;;;;;;;18.61;50.33;98155.34;4457193;32;20092;-69
2021/10/30 08:33:57;;;;;;;4.87;0.80;;;;;;;18.69;49.81;98159.81;4454495;32;20488;-70
2021/10/30 08:36:25;;;;;;;2.62;1.08;;;;;;;18.64;49.73;98163.56;4447788;32;20073;-69
2021/10/30 08:38:51;;;;;;;3.12;1.00;;;;;;;18.82;49.40;98170.34;4431411;32;20072;-70
2021/10/30 08:41:17;;;;;;;2.28;0.90;;;;;;;18.45;49.75;98159.38;4450591;32;20067;-70
2021/10/30 08:43:43;;;;;;;4.60;0.85;;;;;;;18.65;49.25;98165.06;4451560;32;20458;-67
2021/10/30 08:46:08;;;;;;;3.47;0.75;;;;;;;18.78;49.11;98158.56;4444398;32;20037;-68
2021/10/30 08:48:34;;;;;;;2.17;0.62;;;;;;;18.73;49.42;98151.69;4445183;32;20169;-67
2021/10/30 08:51:03;;;;;;;3.17;0.90;;;;;;;18.76;48.85;98158.34;4443110;32;20105;-68
2021/10/30 08:53:30;;;;;;;2.60;1.27;;;;;;;19.12;48.67;98159.94;4447682;32;20623;-68
2021/10/30 08:55:58;;;;;;;9.05;1.58;;;;;;;18.80;48.68;98153.81;4451304;32;20069;-70
2021/10/30 08:58:27;;;;;;;9.70;1.27;;;;;;;18.86;49.26;98162.22;4449754;32;20414;-68
2021/10/30 09:00:56;;;;;;;2.00;0.70;;;;;;;18.60;49.12;98160.28;4449031;32;20078;-68
2021/10/30 09:03:23;;;;;;;6.05;1.42;;;;;;;18.89;49.41;98158.25;4446140;32;20064;-69
2021/10/30 09:05:52;;;;;;;7.12;1.10;;;;;;;18.92;49.73;98166.47;4444083;32;20363;-69
2021/10/30 09:08:21;;;;;;;4.43;0.93;;;;;;;18.62;50.54;98157.63;4449531;32;20145;-69
2021/10/30 09:10:51;;;;;;;4.57;0.95;;;;;;;18.45;51.65;98159.38;4446401;32;20099;-67
2021/10/30 09:13:20;;;;;;;4.15;1.15;;;;;;;18.54;50.15;98153.19;4448680;32;20017;-69
2021/10/30 09:15:50;;;;;;;9.00;1.12;;;;;;;18.71;50.99;98160.00;4447302;32;20029;-69
2021/10/30 09:26:23;;;;;;;9.23;1.00;;;;;;;19.14;50.23;98136.59;3999156;31;15016055;-69
2021/10/30 09:28:54;;;;;;;1.83;0.40;;;;;;;19.14;50.23;98136.59;4458088;32;20088;-69
2021/10/30 09:31:24;;;;;;;3.83;1.10;;;;;;;18.81;50.28;98140.34;4456309;32;20119;-69
2021/10/30 09:33:54;;;;;;;4.53;1.15;;;;;;;18.68;50.27;98141.16;4456617;32;20085;-69
2021/10/30 09:36:22;;;;;;;3.85;0.80;;;;;;;18.87;49.58;98135.25;4455181;32;20123;-69
2021/10/30 09:38:54;;;;;;;3.97;1.45;;;;;;;18.90;49.78;98146.28;4456793;32;20462;-69
2021/10/30 09:46:36;;;;;;;2.97;0.57;;;;;;;19.47;48.64;98130.00;3978330;32;15023937;-69
2021/10/30 09:52:09;;;;;;;1.77;0.50;;;;;;;19.40;48.51;98122.16;3985145;32;15027137;-69
2021/10/30 09:57:13;;;;;;;2.92;0.70;;;;;;;19.69;48.53;98120.78;3982303;32;15033914;-69
2021/10/30 09:59:40;;;;;;;6.50;3.03;;;;;;;19.69;48.53;98120.78;4436473;32;21462;-69
2021/10/30 10:02:07;;;;;;;6.57;2.03;;;;;;;19.27;49.24;98130.84;4438569;32;20068;-70
2021/10/30 10:04:38;;;;;;;4.00;1.60;;;;;;;19.27;48.83;98137.28;4437546;32;20034;-69
2021/10/30 10:07:07;;;;;;;5.65;1.35;;;;;;;19.52;48.17;98138.38;4439076;32;20723;-69
2021/10/30 10:09:32;;;;;;;3.20;0.95;;;;;;;19.27;47.78;98133.69;4439733;32;20135;-70
2021/10/30 10:11:59;;;;;;;2.72;1.02;;;;;;;19.13;48.13;98135.06;4436782;32;20025;-70
2021/10/30 10:14:25;;;;;;;2.95;0.90;;;;;;;19.06;48.54;98147.19;4439265;32;20073;-70
2021/10/30 10:16:52;;;;;;;12.37;1.87;;;;;;;19.04;48.48;98158.38;4436176;32;20457;-70
2021/10/30 10:19:21;;;;;;;3.85;1.42;;;;;;;19.49;48.06;98158.72;4437633;32;20448;-70
2021/10/30 10:21:49;;;;;;;2.92;1.02;;;;;;;19.90;47.41;98152.84;4435737;32;20514;-68
2021/10/30 10:24:17;;;;;;;3.55;0.93;;;;;;;19.67;46.93;98177.66;4435864;32;20060;-68
2021/10/30 10:34:42;;;;;;;4.97;1.60;;;;;;;21.02;45.54;98189.53;3984223;32;15021256;-68
2021/10/30 10:39:52;;;;;;;4.32;1.50;;;;;;;21.75;44.20;98202.84;3982321;32;15022179;-68
2021/10/30 10:42:40;;;;;;;3.90;1.10;;;;;;;21.75;44.20;98202.84;4439211;32;20404;-68
2021/10/30 10:58:14;;;;;;;3.12;0.50;;;;;;;24.16;37.91;98238.53;3997684;31;15017947;-68
2021/10/30 11:01:07;;;;;;;0.70;0.40;;;;;;;24.16;37.91;98238.53;4449563;32;20032;-69
2021/10/30 11:03:41;;;;;;;4.78;1.02;;;;;;;24.24;36.53;98239.22;4447997;32;20436;-69
2021/10/30 11:06:07;;;;;;;1.00;0.40;;;;;;;24.70;36.78;98245.94;4443474;32;20084;-69
2021/10/30 11:08:34;;;;;;;1.08;0.70;;;;;;;24.48;36.89;98249.84;4448421;32;20418;-69
2021/10/30 11:13:56;;;;;;;1.30;0.30;;;;;;;22.60;37.89;98246.47;3985007;32;15022715;-68
2021/10/30 11:16:28;;;;;;;1.20;0.30;;;;;;;22.60;37.89;98246.47;4438809;32;20198;-67
2021/10/30 11:19:22;;;;;;;0.80;0.40;;;;;;;22.29;37.96;98256.53;4437935;32;20053;-67
2021/10/30 11:21:50;;;;;;;1.00;0.30;;;;;;;23.05;37.28;98245.44;4436535;32;20104;-67
2021/10/30 11:24:22;;;;;;;0.73;0.30;;;;;;;23.18;37.71;98242.28;4437702;32;20042;-67
2021/10/30 11:27:06;;;;;;;0.73;0.35;;;;;;;23.07;36.74;98257.84;4436811;32;20372;-67
2021/10/30 11:29:33;;;;;;;1.47;0.40;;;;;;;22.70;37.73;98252.38;4436840;32;20033;-67
2021/10/30 11:32:03;;;;;;;1.40;0.50;;;;;;;21.97;37.39;98247.06;4436013;32;20077;-67
2021/10/30 11:34:31;;;;;;;2.17;0.40;;;;;;;23.05;36.82;98249.09;4438040;32;20034;-68
2021/10/30 11:36:58;;;;;;;2.15;0.70;;;;;;;22.92;37.62;98257.19;4436940;32;20094;-68
2021/10/30 11:39:26;;;;;;;2.08;1.10;;;;;;;22.76;37.52;98255.75;4432688;32;20091;-68
2021/10/30 11:41:53;;;;;;;1.85;0.52;;;;;;;22.91;37.54;98262.16;4439197;32;20389;-68
2021/10/30 11:44:21;;;;;;;3.20;0.50;;;;;;;22.76;37.68;98252.88;4432904;32;20069;-68
2021/10/30 11:46:53;;;;;;;2.80;0.60;;;;;;;23.05;36.81;98269.16;4433314;32;20030;-68
2021/10/30 11:52:04;;;;;;;1.58;0.57;;;;;;;24.08;35.06;98280.97;3987492;32;15023114;-69
2021/10/30 11:54:31;;;;;;;1.08;0.75;;;;;;;24.08;35.06;98280.97;4435665;32;20055;-69
2021/10/30 11:57:00;;;;;;;1.10;0.60;;;;;;;23.61;34.61;98289.81;4437837;32;20091;-69
2021/10/30 11:59:26;;;;;;;3.47;0.35;;;;;;;23.98;33.84;98282.97;4440411;32;20081;-69
2021/10/30 12:01:52;;;;;;;1.60;0.60;;;;;;;23.11;34.66;98300.47;4438614;32;20072;-69
2021/10/30 12:04:21;;;;;;;2.12;0.30;;;;;;;22.99;34.72;98296.53;4439300;32;20093;-69
2021/10/30 12:09:34;;;;;;;0.30;0.20;;;;;;;24.04;33.62;98313.00;3955122;32;15721463;-69
2021/10/30 12:12:03;;;;;;;2.83;0.47;;;;;;;24.04;33.62;98313.00;4435790;32;20358;-70
2021/10/30 12:17:07;;;;;;;0.82;0.30;;;;;;;23.57;33.36;98309.56;3976297;32;15020557;-70
2021/10/30 12:19:35;;;;;;;2.72;0.20;;;;;;;23.57;33.36;98309.56;4432979;32;20021;-68
2021/10/30 12:22:04;;;;;;;4.37;0.50;;;;;;;23.50;33.71;98314.00;4436710;32;20026;-68